EDW67 VRMM-LSZH
Flight info
| Callsign | EDW67 |
|---|---|
| Flight time | N/A |
| Altitude | 34000 |
| Route | ELBET1B ELBET L894 DONSA UL425 ASPUX/N0500F360 N315 SITOL DCT PUSON L883 KITUB Y511 PMA Z712 WEJ/N0497F380 L677 CVO L617 TANSA UL613 KOR DCT DIMIS DCT VAKSU DCT IXONA DCT UNTAD DCT RESIA DCT SOPER Z50 KELIP |
| Aircraft | A359/H-SDE2E3GHIJ3J4J5LM1ORWXY/LB1D1 |
Departure
| Time | 2026-04-29 19:49 |
|---|---|
| Airport | Velana International Airport (VRMM) |
Arrival
| Time | N/A |
|---|---|
| Airport | Zürich Airport (LSZH) |
| Time | Latitude | Longitude | Altitude | Speed | Heading |
|---|---|---|---|---|---|
| 2026-04-29 19:05 | 4.17908 | 73.52781 | -9 ft | 0 kts | 269° |
| 2026-04-29 19:33 | 4.17908 | 73.52772 | 22 ft | 5 kts | 269° |
| 2026-04-29 19:33 | 4.17909 | 73.52757 | 22 ft | 5 kts | 269° |
| 2026-04-29 19:33 | 4.17909 | 73.52761 | 22 ft | 3 kts | 269° |
| 2026-04-29 19:33 | 4.17909 | 73.52781 | 22 ft | 3 kts | 269° |
| 2026-04-29 19:34 | 4.17909 | 73.52801 | 22 ft | 3 kts | 269° |
| 2026-04-29 19:34 | 4.17909 | 73.52822 | 22 ft | 3 kts | 269° |
| 2026-04-29 19:34 | 4.17909 | 73.52840 | 22 ft | 3 kts | 267° |
| 2026-04-29 19:34 | 4.17912 | 73.52858 | 22 ft | 3 kts | 239° |
| 2026-04-29 19:35 | 4.17923 | 73.52870 | 23 ft | 3 kts | 187° |
| 2026-04-29 19:35 | 4.17943 | 73.52869 | 22 ft | 3 kts | 170° |
| 2026-04-29 19:35 | 4.17959 | 73.52867 | 21 ft | 0 kts | 179° |
| 2026-04-29 19:35 | 4.17953 | 73.52867 | 21 ft | 0 kts | 179° |
| 2026-04-29 19:39 | 4.17937 | 73.52867 | 19 ft | 7 kts | 180° |
| 2026-04-29 19:39 | 4.17864 | 73.52883 | 23 ft | 12 kts | 127° |
| 2026-04-29 19:39 | 4.17893 | 73.52930 | 22 ft | 9 kts | 4° |
| 2026-04-29 19:40 | 4.17954 | 73.52933 | 21 ft | 9 kts | 3° |
| 2026-04-29 19:40 | 4.18018 | 73.52937 | 19 ft | 9 kts | 3° |
| 2026-04-29 19:40 | 4.18083 | 73.52937 | 22 ft | 10 kts | 360° |
| 2026-04-29 19:40 | 4.18147 | 73.52936 | 22 ft | 9 kts | 360° |
| 2026-04-29 19:41 | 4.18183 | 73.52952 | 22 ft | 4 kts | 64° |
| 2026-04-29 19:41 | 4.18190 | 73.52967 | 21 ft | 0 kts | 68° |
| 2026-04-29 19:46 | 4.18193 | 73.52976 | 22 ft | 5 kts | 69° |
| 2026-04-29 19:46 | 4.18197 | 73.53022 | 22 ft | 7 kts | 85° |
| 2026-04-29 19:47 | 4.18203 | 73.53076 | 21 ft | 8 kts | 84° |
| 2026-04-29 19:47 | 4.18215 | 73.53101 | 23 ft | 1 kts | 24° |
| 2026-04-29 19:47 | 4.18219 | 73.53102 | 23 ft | 2 kts | 16° |
| 2026-04-29 19:47 | 4.18263 | 73.53100 | 20 ft | 16 kts | 359° |
| 2026-04-29 19:48 | 4.18577 | 73.53097 | 20 ft | 79 kts | 359° |
| 2026-04-29 19:48 | 4.19049 | 73.53093 | 21 ft | 121 kts | 360° |
| 2026-04-29 19:48 | 4.20503 | 73.53102 | 30 ft | 191 kts | 356° |
| 2026-04-29 19:48 | 4.21876 | 73.53098 | 515 ft | 203 kts | 359° |
| 2026-04-29 19:49 | 4.23345 | 73.53075 | 1054 ft | 219 kts | 354° |
| 2026-04-29 19:49 | 4.24839 | 73.52670 | 1608 ft | 232 kts | 333° |
| 2026-04-29 19:49 | 4.26338 | 73.51967 | 1880 ft | 245 kts | 333° |
| 2026-04-29 19:49 | 4.27976 | 73.51342 | 2201 ft | 256 kts | 347° |
| 2026-04-29 19:50 | 4.29748 | 73.51289 | 2883 ft | 256 kts | 6° |
| 2026-04-29 19:50 | 4.31505 | 73.51504 | 3475 ft | 253 kts | 4° |
| 2026-04-29 19:50 | 4.33260 | 73.51688 | 3939 ft | 257 kts | 2° |
| 2026-04-29 19:50 | 4.35083 | 73.51849 | 4190 ft | 269 kts | 4° |
| 2026-04-29 19:51 | 4.36974 | 73.51982 | 4576 ft | 275 kts | 1° |
| 2026-04-29 19:51 | 4.38869 | 73.51760 | 5025 ft | 275 kts | 342° |
| 2026-04-29 19:51 | 4.40551 | 73.50892 | 5519 ft | 272 kts | 322° |
| 2026-04-29 19:51 | 4.42047 | 73.49713 | 5984 ft | 275 kts | 319° |
| 2026-04-29 19:52 | 4.43514 | 73.48474 | 6456 ft | 277 kts | 319° |
| 2026-04-29 19:52 | 4.44996 | 73.47211 | 6859 ft | 282 kts | 319° |
| 2026-04-29 19:52 | 4.46499 | 73.45933 | 7322 ft | 285 kts | 319° |
| 2026-04-29 19:52 | 4.48021 | 73.44639 | 7787 ft | 289 kts | 319° |
| 2026-04-29 19:53 | 4.49562 | 73.43328 | 8228 ft | 293 kts | 320° |
| 2026-04-29 19:53 | 4.51121 | 73.42004 | 8715 ft | 295 kts | 320° |
| 2026-04-29 19:53 | 4.52699 | 73.40663 | 9167 ft | 300 kts | 320° |
| 2026-04-29 19:53 | 4.54308 | 73.39300 | 9583 ft | 306 kts | 321° |
| 2026-04-29 19:54 | 4.57610 | 73.36492 | 10277 ft | 321 kts | 320° |
| 2026-04-29 19:54 | 4.59344 | 73.35016 | 10471 ft | 334 kts | 321° |
| 2026-04-29 19:54 | 4.61152 | 73.33479 | 10682 ft | 346 kts | 320° |
| 2026-04-29 19:55 | 4.63016 | 73.31892 | 10876 ft | 357 kts | 320° |
| 2026-04-29 19:55 | 4.64936 | 73.30257 | 11075 ft | 368 kts | 320° |
| 2026-04-29 19:55 | 4.66914 | 73.28576 | 11261 ft | 378 kts | 321° |
| 2026-04-29 19:55 | 4.68948 | 73.26850 | 11439 ft | 387 kts | 320° |